createdAt,value
2018-03-24T00:00:04.127Z,5.67
2018-03-24T00:02:33.830Z,5.93
2018-03-24T00:05:07.274Z,5.27
2018-03-24T00:07:36.596Z,5.13
2018-03-24T00:10:09.550Z,6.63
2018-03-24T00:12:38.925Z,5.97
2018-03-24T00:15:15.884Z,4.80
2018-03-24T00:17:45.476Z,5.27
2018-03-24T00:20:15.713Z,5.20
2018-03-24T00:22:45.043Z,5.67
2018-03-24T00:25:18.988Z,5.60
2018-03-24T00:27:48.406Z,6.33
2018-03-24T00:30:21.816Z,4.93
2018-03-24T00:32:51.928Z,5.20
2018-03-24T00:35:22.275Z,5.07
2018-03-24T00:37:53.434Z,5.30
2018-03-24T00:40:26.005Z,5.07
2018-03-24T00:42:55.368Z,5.20
2018-03-24T00:45:28.688Z,5.80
2018-03-24T00:47:59.219Z,5.30
2018-03-24T00:50:30.868Z,4.93
2018-03-24T00:53:00.996Z,4.60
2018-03-24T00:55:34.437Z,4.90
2018-03-24T00:58:04.160Z,5.20
2018-03-24T01:00:37.270Z,4.87
2018-03-24T01:03:07.316Z,4.50
2018-03-24T01:05:39.125Z,5.07
2018-03-24T01:08:08.582Z,5.20
2018-03-24T01:10:41.933Z,4.37
2018-03-24T01:13:11.375Z,4.97
2018-03-24T01:15:45.338Z,4.73
2018-03-24T01:18:15.081Z,4.40
2018-03-24T01:20:48.547Z,3.87
2018-03-24T01:23:17.842Z,4.30
2018-03-24T01:25:51.219Z,4.37
2018-03-24T01:28:20.818Z,4.43
2018-03-24T01:30:58.414Z,4.27
2018-03-24T01:33:28.322Z,4.17
2018-03-24T01:35:59.403Z,4.90
2018-03-24T01:38:29.895Z,4.23
2018-03-24T01:41:03.120Z,4.57
2018-03-24T01:43:33.292Z,4.70
2018-03-24T01:46:06.487Z,4.87
2018-03-24T01:48:36.274Z,4.10
2018-03-24T01:51:08.418Z,4.50
2018-03-24T01:53:47.528Z,4.03
2018-03-24T01:56:17.586Z,4.63
2018-03-24T01:58:47.559Z,4.90
2018-03-24T02:01:18.034Z,4.60
2018-03-24T02:03:49.547Z,4.50
2018-03-24T02:06:19.588Z,4.70
2018-03-24T02:08:49.309Z,3.97
2018-03-24T02:11:21.951Z,4.47
2018-03-24T02:13:51.582Z,5.10
2018-03-24T02:16:22.608Z,4.27
2018-03-24T02:18:53.664Z,3.63
2018-03-24T02:21:25.581Z,4.03
2018-03-24T02:23:55.232Z,3.70
2018-03-24T02:26:28.660Z,4.50
2018-03-24T02:28:58.429Z,4.00
2018-03-24T02:31:30.064Z,4.63
2018-03-24T02:33:59.793Z,3.57
2018-03-24T02:36:32.686Z,4.07
2018-03-24T02:39:02.699Z,4.20
2018-03-24T02:41:35.584Z,3.80
2018-03-24T02:44:06.346Z,4.33
2018-03-24T02:46:39.231Z,4.37
2018-03-24T02:49:09.051Z,4.20
2018-03-24T02:51:42.957Z,4.13
2018-03-24T02:54:12.957Z,3.77
2018-03-24T02:56:45.767Z,3.63
2018-03-24T02:59:15.984Z,4.17
2018-03-24T03:01:49.472Z,4.23
2018-03-24T03:04:19.474Z,4.30
2018-03-24T03:06:51.512Z,3.87
2018-03-24T03:09:23.121Z,3.30
2018-03-24T03:11:57.405Z,4.20
2018-03-24T03:14:27.564Z,3.63
2018-03-24T03:16:59.111Z,4.07
2018-03-24T03:19:29.325Z,4.03
2018-03-24T03:22:02.248Z,3.77
2018-03-24T03:24:33.022Z,4.27
2018-03-24T03:27:04.768Z,4.57
2018-03-24T03:29:34.748Z,4.30
2018-03-24T03:32:06.482Z,4.93
2018-03-24T03:34:36.073Z,5.63
2018-03-24T03:37:10.920Z,4.33
2018-03-24T03:39:41.123Z,5.70
2018-03-24T03:42:14.703Z,5.67
2018-03-24T03:44:45.008Z,5.20
2018-03-24T03:47:14.863Z,5.80
2018-03-24T03:49:44.687Z,5.23
2018-03-24T03:52:18.470Z,5.37
2018-03-24T03:54:48.502Z,5.10
2018-03-24T03:57:19.871Z,5.07
2018-03-24T03:59:50.822Z,6.10
2018-03-24T04:02:22.673Z,5.27
2018-03-24T04:04:53.200Z,5.47
2018-03-24T04:07:24.124Z,5.10
2018-03-24T04:09:53.643Z,4.97
2018-03-24T04:12:27.927Z,5.50
2018-03-24T04:14:58.261Z,5.07
2018-03-24T04:17:29.753Z,5.23
2018-03-24T04:19:59.671Z,4.90
2018-03-24T04:22:33.754Z,5.73
2018-03-24T04:25:04.453Z,4.33
2018-03-24T04:27:36.767Z,5.07
2018-03-24T04:30:06.664Z,5.27
2018-03-24T04:32:37.577Z,5.03
2018-03-24T04:35:08.634Z,4.73
2018-03-24T04:37:39.482Z,5.10
2018-03-24T04:40:08.929Z,5.37
2018-03-24T04:42:42.776Z,6.23
2018-03-24T04:45:12.073Z,5.33
2018-03-24T04:47:46.067Z,5.57
2018-03-24T04:50:15.670Z,5.70
2018-03-24T04:52:49.369Z,6.07
2018-03-24T04:55:18.816Z,6.27
2018-03-24T04:57:52.943Z,5.23
2018-03-24T05:00:23.487Z,5.30
2018-03-24T05:02:57.158Z,6.00
2018-03-24T05:05:28.102Z,7.07
2018-03-24T05:08:00.480Z,5.73
2018-03-24T05:10:30.244Z,6.93
2018-03-24T05:13:04.230Z,8.20
2018-03-24T05:15:34.008Z,7.47
2018-03-24T05:18:07.629Z,6.80
2018-03-24T05:20:37.858Z,7.50
2018-03-24T05:23:11.481Z,6.70
2018-03-24T05:25:41.725Z,7.43
2018-03-24T05:28:13.206Z,7.70
2018-03-24T05:30:43.096Z,6.67
2018-03-24T05:33:16.140Z,6.73
2018-03-24T05:35:45.882Z,6.37
2018-03-24T05:38:18.893Z,6.80
2018-03-24T05:40:49.603Z,6.27
2018-03-24T05:43:21.138Z,6.53
2018-03-24T05:45:53.005Z,6.50
2018-03-24T05:48:23.033Z,7.30
2018-03-24T05:50:53.275Z,7.33
2018-03-24T05:53:24.964Z,7.23
2018-03-24T05:55:54.853Z,7.17
2018-03-24T05:58:28.394Z,6.80
2018-03-24T06:00:58.729Z,6.60
2018-03-24T06:03:30.930Z,7.60
2018-03-24T06:06:01.663Z,7.20
2018-03-24T06:08:32.969Z,7.37
2018-03-24T06:11:02.658Z,7.73
2018-03-24T06:13:36.673Z,8.57
2018-03-24T06:16:06.621Z,8.43
2018-03-24T06:18:37.872Z,7.87
2018-03-24T06:21:08.006Z,9.03
2018-03-24T06:23:40.131Z,7.97
2018-03-24T06:26:09.941Z,7.73
2018-03-24T06:28:47.286Z,8.07
2018-03-24T06:31:16.953Z,8.80
2018-03-24T06:33:46.912Z,8.80
2018-03-24T06:36:17.204Z,7.97
2018-03-24T06:38:50.710Z,7.87
2018-03-24T06:41:21.046Z,8.60
2018-03-24T06:43:54.440Z,8.23
2018-03-24T06:46:24.378Z,8.57
2018-03-24T06:48:57.027Z,7.83
2018-03-24T06:51:27.544Z,8.17
2018-03-24T06:54:00.860Z,8.07
2018-03-24T06:56:30.451Z,8.07
2018-03-24T06:59:04.506Z,8.00
2018-03-24T07:01:34.022Z,9.17
2018-03-24T07:04:11.179Z,8.60
2018-03-24T07:06:40.996Z,8.30
2018-03-24T07:09:11.024Z,8.97
2018-03-24T07:11:40.640Z,8.87
2018-03-24T07:14:13.968Z,9.07
2018-03-24T07:16:44.189Z,9.17
2018-03-24T07:19:15.557Z,9.60
2018-03-24T07:21:46.053Z,9.83
2018-03-24T07:24:18.671Z,9.57
2018-03-24T07:26:48.042Z,9.87
2018-03-24T07:29:20.270Z,9.23
2018-03-24T07:31:49.601Z,9.43
2018-03-24T07:34:22.934Z,10.87
2018-03-24T07:36:53.783Z,10.40
2018-03-24T07:39:26.784Z,9.53
2018-03-24T07:41:56.254Z,9.97
2018-03-24T07:44:29.416Z,10.47
2018-03-24T07:46:58.696Z,9.63
2018-03-24T07:49:35.549Z,10.00
2018-03-24T07:52:05.224Z,10.17
2018-03-24T07:54:34.858Z,9.97
2018-03-24T07:57:04.256Z,9.53
2018-03-24T07:59:38.690Z,8.70
2018-03-24T08:02:08.719Z,8.17
2018-03-24T08:04:40.905Z,9.27
2018-03-24T08:07:10.212Z,8.30
2018-03-24T08:09:42.931Z,9.30
2018-03-24T08:12:12.416Z,10.10
2018-03-24T08:14:46.391Z,9.53
2018-03-24T08:17:16.154Z,7.67
2018-03-24T08:19:52.890Z,8.20
2018-03-24T08:22:22.736Z,7.27
2018-03-24T08:24:52.055Z,7.00
2018-03-24T08:27:21.565Z,7.80
2018-03-24T08:29:58.256Z,7.43
2018-03-24T08:32:27.533Z,7.37
2018-03-24T08:34:58.179Z,8.23
2018-03-24T08:37:27.897Z,7.47
2018-03-24T08:40:01.485Z,7.97
2018-03-24T08:42:30.812Z,7.10
2018-03-24T08:45:07.446Z,7.80
2018-03-24T08:47:36.649Z,7.50
2018-03-24T08:50:08.245Z,7.87
2018-03-24T08:52:38.891Z,6.83
2018-03-24T08:55:16.094Z,8.73
2018-03-24T08:57:45.656Z,8.63
2018-03-24T09:00:15.757Z,9.07
2018-03-24T09:02:45.817Z,8.67
2018-03-24T09:05:16.110Z,8.23
2018-03-24T09:07:45.280Z,9.57
2018-03-24T09:10:22.215Z,7.37
2018-03-24T09:12:51.698Z,7.50
2018-03-24T09:15:23.905Z,8.30
2018-03-24T09:17:55.784Z,7.53
2018-03-24T09:20:25.549Z,8.07
2018-03-24T09:22:55.533Z,9.17
2018-03-24T09:25:26.875Z,9.50
2018-03-24T09:27:56.754Z,8.43
2018-03-24T09:30:29.632Z,8.47
2018-03-24T09:32:59.029Z,8.67
2018-03-24T09:35:32.396Z,9.13
2018-03-24T09:38:02.508Z,8.77
2018-03-24T09:40:35.465Z,9.20
2018-03-24T09:43:04.630Z,8.23
2018-03-24T09:45:37.225Z,9.10
2018-03-24T09:48:06.795Z,7.77
2018-03-24T09:50:40.259Z,8.17
2018-03-24T09:53:09.963Z,8.00
2018-03-24T09:55:43.368Z,7.93
2018-03-24T09:58:12.664Z,8.23
2018-03-24T10:00:49.697Z,9.20
2018-03-24T10:03:19.236Z,7.97
2018-03-24T10:05:50.410Z,8.80
2018-03-24T10:08:19.696Z,8.37
2018-03-24T10:10:53.136Z,8.47
2018-03-24T10:13:22.390Z,9.83
2018-03-24T10:15:59.470Z,8.80
2018-03-24T10:18:28.805Z,8.80
2018-03-24T10:21:01.086Z,8.33
2018-03-24T10:23:30.966Z,9.40
2018-03-24T10:26:03.061Z,8.23
2018-03-24T10:28:32.215Z,9.07
2018-03-24T10:31:05.892Z,8.93
2018-03-24T10:33:35.755Z,9.20
2018-03-24T10:36:12.783Z,9.83
2018-03-24T10:38:42.532Z,10.40
2018-03-24T10:41:12.711Z,10.23
2018-03-24T10:43:41.953Z,10.07
2018-03-24T10:46:14.949Z,9.70
2018-03-24T10:48:44.321Z,9.43
2018-03-24T10:51:17.383Z,8.57
2018-03-24T10:53:46.486Z,8.70
2018-03-24T10:56:23.123Z,8.23
2018-03-24T10:58:52.587Z,8.60
2018-03-24T11:01:24.741Z,9.83
2018-03-24T11:03:54.278Z,8.63
2018-03-24T11:06:24.561Z,9.47
2018-03-24T11:08:53.800Z,9.67
2018-03-24T11:11:27.026Z,8.20
2018-03-24T11:13:56.319Z,8.53
2018-03-24T11:16:29.572Z,8.40
2018-03-24T11:18:58.819Z,8.00
2018-03-24T11:21:31.113Z,8.70
2018-03-24T11:24:00.681Z,8.97
2018-03-24T11:26:33.718Z,8.50
2018-03-24T11:29:02.930Z,9.23
2018-03-24T11:31:36.611Z,8.33
2018-03-24T11:34:05.912Z,8.50
2018-03-24T11:36:43.406Z,9.23
2018-03-24T11:39:13.615Z,8.23
2018-03-24T11:41:42.943Z,8.13
2018-03-24T11:44:13.056Z,8.20
2018-03-24T11:46:46.169Z,9.17
2018-03-24T11:49:15.580Z,8.20
2018-03-24T11:51:52.434Z,9.10
2018-03-24T11:54:30.697Z,8.63
2018-03-24T11:56:59.989Z,9.33
2018-03-24T11:59:29.618Z,7.97
2018-03-24T12:01:59.194Z,9.63
2018-03-24T12:04:28.443Z,8.53
2018-03-24T12:06:58.945Z,9.83
2018-03-24T12:09:28.312Z,9.23
2018-03-24T12:12:04.048Z,8.83
2018-03-24T12:14:34.512Z,8.53
2018-03-24T12:17:06.502Z,9.67
2018-03-24T12:19:36.529Z,9.63
2018-03-24T12:22:09.000Z,8.97
2018-03-24T12:24:39.072Z,9.23
2018-03-24T12:27:15.432Z,8.43
2018-03-24T12:29:45.466Z,9.27
2018-03-24T12:32:18.040Z,8.90
2018-03-24T12:34:47.534Z,8.80
2018-03-24T12:37:18.126Z,8.57
2018-03-24T12:39:48.192Z,9.50
2018-03-24T12:42:19.846Z,8.53
2018-03-24T12:44:49.022Z,8.90
2018-03-24T12:47:22.048Z,8.40
2018-03-24T12:49:52.113Z,8.43
2018-03-24T12:52:25.433Z,8.60
2018-03-24T12:54:54.914Z,8.90
2018-03-24T12:57:26.193Z,8.97
2018-03-24T12:59:55.717Z,8.57
2018-03-24T13:02:29.178Z,8.93
2018-03-24T13:04:58.620Z,9.00
2018-03-24T13:07:31.897Z,8.37
2018-03-24T13:10:01.535Z,8.37
2018-03-24T13:12:37.905Z,8.50
2018-03-24T13:15:08.042Z,8.10
2018-03-24T13:17:37.540Z,8.57
2018-03-24T13:20:07.667Z,7.50
2018-03-24T13:22:41.019Z,7.30
2018-03-24T13:25:11.324Z,8.30
2018-03-24T13:27:45.140Z,6.80
2018-03-24T13:30:14.462Z,8.50
2018-03-24T13:32:47.510Z,8.17
2018-03-24T13:35:17.280Z,7.80
2018-03-24T13:37:50.570Z,7.87
2018-03-24T13:40:20.336Z,8.23
2018-03-24T13:42:56.675Z,8.30
2018-03-24T13:45:27.207Z,7.90
2018-03-24T13:47:56.946Z,9.03
2018-03-24T13:50:27.142Z,8.40
2018-03-24T13:53:00.308Z,8.47
2018-03-24T13:55:29.642Z,8.37
2018-03-24T13:58:06.536Z,8.63
2018-03-24T14:00:36.665Z,8.60
2018-03-24T14:03:05.960Z,8.57
2018-03-24T14:05:36.327Z,9.07
2018-03-24T14:08:09.110Z,8.37
2018-03-24T14:10:38.568Z,8.77
2018-03-24T14:13:15.701Z,8.43
2018-03-24T14:15:45.216Z,8.43
2018-03-24T14:18:16.076Z,8.73
2018-03-24T14:20:45.355Z,7.90
2018-03-24T14:23:18.994Z,8.33
2018-03-24T14:25:49.241Z,8.10
2018-03-24T14:28:21.727Z,9.07
2018-03-24T14:30:51.450Z,8.97
2018-03-24T14:33:22.705Z,8.47
2018-03-24T14:35:52.104Z,7.73
2018-03-24T14:38:25.314Z,8.20
2018-03-24T14:40:54.641Z,8.50
2018-03-24T14:43:28.349Z,7.57
2018-03-24T14:45:57.986Z,8.30
2018-03-24T14:48:31.091Z,9.10
2018-03-24T14:51:00.733Z,8.73
2018-03-24T14:53:33.103Z,8.60
2018-03-24T14:58:34.412Z,9.17
2018-03-24T15:01:03.765Z,9.27
2018-03-24T15:03:41.866Z,10.00
2018-03-24T15:06:11.206Z,9.07
2018-03-24T15:08:41.470Z,9.80
2018-03-24T15:11:10.802Z,8.80
2018-03-24T15:13:47.566Z,8.57
2018-03-24T15:16:17.944Z,9.13
2018-03-24T15:18:48.276Z,8.40
2018-03-24T15:21:17.599Z,8.23
2018-03-24T15:23:54.929Z,8.20
2018-03-24T15:26:24.243Z,9.37
2018-03-24T15:29:03.886Z,8.37
2018-03-24T15:32:55.598Z,9.83
2018-03-24T15:35:29.814Z,8.87
2018-03-24T15:38:00.923Z,9.77
2018-03-24T15:40:31.045Z,9.63
2018-03-24T15:43:07.432Z,9.37
2018-03-24T15:45:37.562Z,9.73
2018-03-24T15:48:08.181Z,9.97
2018-03-24T15:50:37.597Z,9.37
2018-03-24T15:53:14.811Z,8.73
2018-03-24T15:55:44.646Z,9.33
2018-03-24T15:58:14.176Z,9.53
2018-03-24T16:00:44.223Z,9.17
2018-03-24T16:03:16.249Z,9.47
2018-03-24T16:05:45.674Z,8.57
2018-03-24T16:08:22.709Z,8.37
2018-03-24T16:10:52.427Z,10.20
2018-03-24T16:13:21.843Z,9.37
2018-03-24T16:15:51.899Z,8.93
2018-03-24T16:18:23.140Z,9.23
2018-03-24T16:20:52.668Z,8.93
2018-03-24T16:23:25.241Z,8.53
2018-03-24T16:25:56.659Z,8.57
2018-03-24T16:28:27.379Z,9.07
2018-03-24T16:30:59.106Z,9.87
2018-03-24T16:33:29.743Z,9.67
2018-03-24T16:35:59.284Z,8.63
2018-03-24T16:38:35.835Z,8.87
2018-03-24T16:41:06.085Z,8.97
2018-03-24T16:43:36.042Z,8.80
2018-03-24T16:46:06.988Z,9.07
2018-03-24T16:48:40.213Z,8.37
2018-03-24T16:51:09.587Z,8.17
2018-03-24T16:53:42.920Z,9.13
2018-03-24T16:56:12.584Z,8.73
2018-03-24T16:58:45.591Z,8.90
2018-03-24T17:01:14.854Z,9.17
2018-03-24T17:03:48.555Z,8.83
2018-03-24T17:06:17.786Z,8.80
2018-03-24T17:08:55.137Z,8.00
2018-03-24T17:11:24.936Z,9.23
2018-03-24T17:13:55.290Z,8.63
2018-03-24T17:16:24.792Z,7.63
2018-03-24T17:19:01.702Z,9.10
2018-03-24T17:21:30.999Z,8.27
2018-03-24T17:24:02.328Z,8.30
2018-03-24T17:26:33.163Z,8.77
2018-03-24T17:29:10.082Z,8.50
2018-03-24T17:31:40.270Z,9.00
2018-03-24T17:34:10.421Z,9.07
2018-03-24T17:36:40.704Z,9.57
2018-03-24T17:39:18.031Z,8.90
2018-03-24T17:41:47.422Z,8.40
2018-03-24T17:44:18.745Z,7.93
2018-03-24T17:46:48.356Z,9.10
2018-03-24T17:49:21.782Z,8.17
2018-03-24T17:51:51.176Z,9.40
2018-03-24T17:54:23.928Z,9.23
2018-03-24T17:56:53.572Z,8.77
2018-03-24T17:59:24.813Z,9.30
2018-03-24T18:01:55.282Z,8.37
2018-03-24T18:04:26.888Z,8.33
2018-03-24T18:06:56.172Z,8.43
2018-03-24T18:09:29.773Z,8.23
2018-03-24T18:11:59.241Z,8.00
2018-03-24T18:14:30.306Z,8.20
2018-03-24T18:17:00.661Z,7.53
2018-03-24T18:19:33.097Z,8.53
2018-03-24T18:22:03.173Z,8.77
2018-03-24T18:24:40.371Z,8.80
2018-03-24T18:27:09.690Z,9.00
2018-03-24T18:29:38.990Z,8.03
2018-03-24T18:32:10.387Z,8.60
2018-03-24T18:34:40.459Z,8.40
2018-03-24T18:37:10.309Z,7.83
2018-03-24T18:39:46.308Z,7.60
2018-03-24T18:42:15.800Z,8.03
2018-03-24T18:44:48.361Z,7.80
2018-03-24T18:47:18.365Z,8.27
2018-03-24T18:49:55.792Z,8.83
2018-03-24T18:52:25.494Z,8.90
2018-03-24T18:54:56.302Z,8.87
2018-03-24T18:57:25.592Z,9.00
2018-03-24T18:59:59.529Z,7.77
2018-03-24T19:02:29.680Z,9.03
2018-03-24T19:05:01.966Z,8.57
2018-03-24T19:07:33.238Z,8.27
2018-03-24T19:10:05.978Z,8.20
2018-03-24T19:12:35.446Z,8.17
2018-03-24T19:15:12.290Z,9.33
2018-03-24T19:17:41.692Z,9.23
2018-03-24T19:20:12.205Z,9.03
2018-03-24T19:22:41.683Z,8.87
2018-03-24T19:25:14.924Z,9.40
2018-03-24T19:27:45.132Z,11.37
2018-03-24T19:30:18.350Z,9.43
2018-03-24T19:32:49.765Z,10.23
2018-03-24T19:35:19.427Z,9.80
2018-03-24T19:37:48.894Z,9.70
2018-03-24T19:40:20.606Z,9.37
2018-03-24T19:42:50.298Z,8.97
2018-03-24T19:45:22.675Z,8.67
2018-03-24T19:47:52.268Z,8.93
2018-03-24T19:50:25.524Z,9.40
2018-03-24T19:52:54.919Z,9.50
2018-03-24T19:55:27.572Z,10.00
2018-03-24T19:57:57.738Z,9.10
2018-03-24T20:00:30.351Z,10.17
2018-03-24T20:03:01.279Z,11.65
2018-03-24T20:05:34.020Z,9.87
2018-03-24T20:08:06.507Z,10.50
2018-03-24T20:13:13.048Z,9.37
2018-03-24T20:15:43.666Z,11.17
2018-03-24T20:18:13.147Z,11.17
2018-03-24T20:20:42.457Z,10.33
2018-03-24T20:23:12.159Z,10.67
2018-03-24T20:25:49.214Z,10.53
2018-03-24T20:28:18.529Z,10.37
2018-03-24T20:30:48.926Z,10.33
2018-03-24T20:33:19.126Z,9.93
2018-03-24T20:35:51.976Z,9.87
2018-03-24T20:38:21.638Z,10.23
2018-03-24T20:40:58.338Z,9.73
2018-03-24T20:43:28.136Z,10.13
2018-03-24T20:45:57.640Z,10.93
2018-03-24T20:48:26.986Z,10.30
2018-03-24T20:51:05.717Z,10.27
2018-03-24T20:53:35.853Z,10.83
2018-03-24T20:56:05.278Z,10.70
2018-03-24T20:58:35.373Z,10.97
2018-03-24T21:01:05.839Z,11.23
2018-03-24T21:03:35.606Z,10.20
2018-03-24T21:06:09.478Z,10.93
2018-03-24T21:08:40.341Z,10.80
2018-03-24T21:11:12.185Z,11.23
2018-03-24T21:13:41.685Z,11.73
2018-03-24T21:16:15.178Z,10.87
2018-03-24T21:18:45.067Z,11.97
2018-03-24T21:21:18.600Z,9.83
2018-03-24T21:23:49.565Z,11.57
2018-03-24T21:26:20.977Z,11.57
2018-03-24T21:28:50.377Z,12.03
2018-03-24T21:31:23.946Z,11.33
2018-03-24T21:33:53.366Z,11.33
2018-03-24T21:36:24.349Z,11.43
2018-03-24T21:38:54.255Z,11.47
2018-03-24T21:41:27.302Z,12.67
2018-03-24T21:43:56.848Z,12.33
2018-03-24T21:46:30.934Z,11.27
2018-03-24T21:49:00.319Z,11.47
2018-03-24T21:51:32.429Z,11.93
2018-03-24T21:54:04.106Z,10.17
2018-03-24T21:56:35.097Z,10.33
2018-03-24T21:59:04.771Z,10.77
2018-03-24T22:01:47.844Z,11.60
2018-03-24T22:04:17.323Z,11.93
2018-03-24T22:06:47.443Z,11.20
2018-03-24T22:09:17.602Z,10.07
2018-03-24T22:11:47.254Z,11.93
2018-03-24T22:14:16.650Z,11.30
2018-03-24T22:16:46.760Z,10.03
2018-03-24T22:19:16.252Z,11.87
2018-03-24T22:21:49.263Z,10.40
2018-03-24T22:24:19.359Z,10.97
2018-03-24T22:26:52.585Z,10.60
2018-03-24T22:29:21.985Z,10.20
2018-03-24T22:31:55.794Z,10.43
2018-03-24T22:34:25.737Z,10.30
2018-03-24T22:37:00.429Z,10.23
2018-03-24T22:39:31.197Z,10.37
2018-03-24T22:42:06.922Z,10.53
2018-03-24T22:44:36.530Z,10.13
2018-03-24T22:47:14.077Z,9.53
2018-03-24T22:49:43.636Z,10.23
2018-03-24T22:52:16.172Z,11.27
2018-03-24T22:54:46.220Z,11.00
2018-03-24T22:57:19.847Z,10.57
2018-03-24T22:59:49.975Z,10.57
2018-03-24T23:02:20.286Z,9.80
2018-03-24T23:04:50.034Z,9.90
2018-03-24T23:07:23.152Z,10.70
2018-03-24T23:09:54.235Z,10.13
2018-03-24T23:12:23.746Z,10.67
2018-03-24T23:14:53.212Z,9.27
2018-03-24T23:17:26.712Z,10.27
2018-03-24T23:19:57.038Z,10.57
2018-03-24T23:22:30.016Z,9.10
2018-03-24T23:24:59.868Z,10.03
2018-03-24T23:27:33.278Z,9.93
2018-03-24T23:30:02.615Z,9.80
2018-03-24T23:41:22.779Z,8.53
2018-03-24T23:43:52.586Z,9.10
2018-03-24T23:46:31.742Z,8.87
2018-03-24T23:59:14.423Z,8.73
